createdAt,value
2023-01-08T00:01:11.948Z,100.00
2023-01-08T00:03:39.617Z,100.00
2023-01-08T00:06:09.214Z,100.00
2023-01-08T00:08:35.690Z,100.00
2023-01-08T00:11:02.177Z,100.00
2023-01-08T00:13:29.458Z,100.00
2023-01-08T00:15:56.034Z,100.00
2023-01-08T00:18:22.576Z,100.00
2023-01-08T00:20:49.094Z,100.00
2023-01-08T00:23:17.817Z,100.00
2023-01-08T00:25:44.732Z,100.00
2023-01-08T00:28:11.461Z,100.00
2023-01-08T00:30:38.185Z,100.00
2023-01-08T00:33:04.734Z,100.00
2023-01-08T00:35:31.260Z,100.00
2023-01-08T00:37:57.757Z,100.00
2023-01-08T00:40:24.254Z,100.00
2023-01-08T00:42:50.691Z,100.00
2023-01-08T00:45:17.167Z,100.00
2023-01-08T00:47:43.673Z,100.00
2023-01-08T00:50:10.924Z,100.00
2023-01-08T00:52:37.334Z,100.00
2023-01-08T00:55:04.051Z,100.00
2023-01-08T00:57:37.943Z,100.00
2023-01-08T01:00:07.126Z,100.00
2023-01-08T01:02:35.351Z,100.00
2023-01-08T01:05:02.145Z,100.00
2023-01-08T01:07:28.569Z,100.00
2023-01-08T01:09:55.066Z,98.98
2023-01-08T01:12:21.598Z,98.71
2023-01-08T01:14:48.104Z,100.00
2023-01-08T01:17:14.536Z,100.00
2023-01-08T01:19:41.351Z,100.00
2023-01-08T01:22:07.824Z,100.00
2023-01-08T01:24:34.557Z,100.00
2023-01-08T01:27:00.993Z,100.00
2023-01-08T01:29:27.549Z,100.00
2023-01-08T01:31:57.607Z,100.00
2023-01-08T01:34:24.389Z,100.00
2023-01-08T01:36:50.851Z,100.00
2023-01-08T01:39:17.371Z,100.00
2023-01-08T01:41:45.571Z,100.00
2023-01-08T01:44:41.841Z,100.00
2023-01-08T01:47:25.648Z,100.00
2023-01-08T01:50:02.422Z,100.00
2023-01-08T01:52:33.058Z,100.00
2023-01-08T01:55:01.839Z,100.00
2023-01-08T01:57:32.991Z,100.00
2023-01-08T02:00:01.126Z,100.00
2023-01-08T02:02:27.742Z,100.00
2023-01-08T02:04:54.255Z,100.00
2023-01-08T02:07:49.101Z,97.31
2023-01-08T02:10:47.389Z,95.40
2023-01-08T02:13:42.522Z,94.66
2023-01-08T02:16:16.039Z,94.12
2023-01-08T02:18:42.391Z,93.52
2023-01-08T02:21:10.214Z,93.65
2023-01-08T02:23:47.303Z,93.01
2023-01-08T02:26:13.724Z,92.82
2023-01-08T02:28:42.430Z,92.68
2023-01-08T02:31:08.957Z,92.24
2023-01-08T02:33:35.741Z,92.05
2023-01-08T02:36:31.977Z,91.61
2023-01-08T02:39:07.728Z,91.58
2023-01-08T02:41:56.991Z,91.20
2023-01-08T02:44:35.686Z,90.64
2023-01-08T02:47:06.525Z,90.26
2023-01-08T02:49:39.020Z,89.74
2023-01-08T02:52:08.401Z,89.02
2023-01-08T02:54:36.673Z,88.82
2023-01-08T02:57:08.179Z,88.61
2023-01-08T02:59:36.074Z,89.04
2023-01-08T03:02:04.362Z,88.90
2023-01-08T03:04:37.874Z,88.76
2023-01-08T03:07:04.438Z,88.84
2023-01-08T03:09:31.020Z,89.16
2023-01-08T03:12:11.293Z,89.46
2023-01-08T03:14:46.542Z,89.87
2023-01-08T03:17:31.922Z,90.30
2023-01-08T03:20:25.071Z,89.89
2023-01-08T03:22:56.150Z,90.12
2023-01-08T03:25:26.201Z,90.51
2023-01-08T03:27:57.770Z,90.88
2023-01-08T03:30:24.872Z,91.34
2023-01-08T03:32:53.037Z,90.80
2023-01-08T03:35:22.768Z,90.69
2023-01-08T03:38:00.374Z,90.33
2023-01-08T03:40:35.154Z,90.63
2023-01-08T03:43:01.789Z,90.19
2023-01-08T03:45:31.537Z,90.23
2023-01-08T03:47:59.854Z,90.03
2023-01-08T03:50:31.075Z,89.71
2023-01-08T03:53:00.601Z,89.73
2023-01-08T03:55:27.367Z,89.82
2023-01-08T03:57:53.794Z,89.35
2023-01-08T04:00:20.566Z,89.45
2023-01-08T04:02:47.054Z,88.97
2023-01-08T04:05:13.535Z,88.23
2023-01-08T04:07:40.046Z,88.06
2023-01-08T04:10:06.979Z,87.63
2023-01-08T04:12:33.481Z,87.27
2023-01-08T04:15:00.123Z,87.53
2023-01-08T04:17:26.643Z,87.85
2023-01-08T04:19:53.109Z,88.24
2023-01-08T04:22:19.554Z,88.86
2023-01-08T04:24:46.004Z,89.67
2023-01-08T04:27:12.489Z,90.41
2023-01-08T04:29:38.938Z,90.81
2023-01-08T04:32:05.391Z,90.57
2023-01-08T04:34:31.817Z,91.06
2023-01-08T04:36:59.005Z,90.61
2023-01-08T04:39:25.477Z,90.79
2023-01-08T04:41:51.956Z,91.21
2023-01-08T04:44:18.411Z,90.87
2023-01-08T04:46:44.830Z,90.69
2023-01-08T04:49:12.357Z,90.43
2023-01-08T04:51:38.957Z,89.84
2023-01-08T04:54:05.532Z,89.76
2023-01-08T04:56:32.119Z,88.42
2023-01-08T04:58:58.924Z,89.42
2023-01-08T05:01:27.590Z,89.55
2023-01-08T05:03:56.292Z,89.68
2023-01-08T05:06:23.087Z,89.35
2023-01-08T05:08:49.621Z,89.60
2023-01-08T05:11:16.050Z,88.75
2023-01-08T05:13:42.591Z,89.19
2023-01-08T05:16:09.267Z,88.03
2023-01-08T05:18:35.784Z,88.35
2023-01-08T05:21:03.158Z,88.69
2023-01-08T05:23:30.724Z,88.71
2023-01-08T05:26:01.134Z,88.06
2023-01-08T05:28:28.253Z,88.18
2023-01-08T05:30:55.024Z,88.20
2023-01-08T05:33:22.215Z,88.26
2023-01-08T05:35:48.895Z,88.11
2023-01-08T05:38:15.707Z,88.55
2023-01-08T05:40:42.110Z,89.04
2023-01-08T05:43:08.745Z,89.46
2023-01-08T05:45:35.319Z,89.56
2023-01-08T05:48:06.664Z,89.98
2023-01-08T05:50:34.149Z,90.00
2023-01-08T05:53:00.917Z,90.40
2023-01-08T05:55:27.430Z,90.40
2023-01-08T05:57:53.869Z,90.57
2023-01-08T06:00:20.460Z,90.92
2023-01-08T06:02:48.395Z,91.40
2023-01-08T06:05:15.407Z,91.69
2023-01-08T06:07:41.965Z,91.39
2023-01-08T06:10:08.850Z,91.86
2023-01-08T06:12:35.355Z,92.17
2023-01-08T06:15:02.000Z,92.14
2023-01-08T06:17:28.407Z,92.45
2023-01-08T06:19:54.821Z,92.86
2023-01-08T06:22:21.276Z,93.19
2023-01-08T06:24:47.774Z,92.91
2023-01-08T06:27:14.348Z,93.29
2023-01-08T06:29:40.787Z,93.35
2023-01-08T06:32:07.315Z,93.55
2023-01-08T06:34:33.769Z,93.12
2023-01-08T06:37:00.230Z,92.88
2023-01-08T06:39:26.906Z,93.41
2023-01-08T06:41:53.395Z,93.31
2023-01-08T06:44:20.081Z,93.15
2023-01-08T06:46:46.886Z,93.26
2023-01-08T06:49:14.820Z,93.46
2023-01-08T06:51:41.323Z,93.19
2023-01-08T06:54:07.829Z,92.65
2023-01-08T06:56:45.359Z,92.45
2023-01-08T06:59:18.978Z,92.44
2023-01-08T07:01:45.522Z,92.12
2023-01-08T07:04:12.023Z,91.79
2023-01-08T07:06:38.491Z,92.55
2023-01-08T07:09:04.973Z,91.97
2023-01-08T07:11:31.405Z,91.95
2023-01-08T07:13:57.926Z,91.97
2023-01-08T07:16:24.668Z,92.02
2023-01-08T07:18:51.202Z,92.09
2023-01-08T07:21:17.701Z,92.04
2023-01-08T07:23:45.582Z,91.64
2023-01-08T07:26:12.113Z,92.78
2023-01-08T07:28:38.593Z,93.01
2023-01-08T07:31:06.272Z,93.54
2023-01-08T07:33:33.187Z,92.94
2023-01-08T07:35:59.746Z,92.77
2023-01-08T07:38:26.503Z,92.90
2023-01-08T07:40:53.593Z,92.83
2023-01-08T07:43:20.522Z,93.10
2023-01-08T07:45:47.028Z,93.67
2023-01-08T07:48:16.562Z,93.97
2023-01-08T07:50:44.252Z,95.22
2023-01-08T07:53:12.707Z,94.85
2023-01-08T07:55:39.312Z,95.25
2023-01-08T07:58:10.112Z,96.03
2023-01-08T08:00:36.639Z,96.79
2023-01-08T08:03:07.412Z,97.17
2023-01-08T08:05:34.738Z,98.05
2023-01-08T08:08:01.434Z,97.84
2023-01-08T08:10:28.361Z,98.92
2023-01-08T08:12:54.860Z,99.24
2023-01-08T08:15:21.385Z,99.60
2023-01-08T08:17:48.771Z,100.00
2023-01-08T08:20:16.123Z,99.80
2023-01-08T08:22:42.900Z,100.00
2023-01-08T08:25:09.736Z,100.00
2023-01-08T08:27:36.296Z,100.00
2023-01-08T08:30:03.957Z,100.00
2023-01-08T08:32:30.468Z,100.00
2023-01-08T08:34:56.931Z,100.00
2023-01-08T08:37:23.365Z,100.00
2023-01-08T08:39:49.770Z,100.00
2023-01-08T08:42:16.351Z,100.00
2023-01-08T08:44:43.192Z,100.00
2023-01-08T08:47:10.338Z,100.00
2023-01-08T08:49:36.890Z,99.91
2023-01-08T08:52:04.413Z,99.52
2023-01-08T08:54:31.206Z,100.00
2023-01-08T08:56:57.661Z,100.00
2023-01-08T08:59:24.291Z,100.00
2023-01-08T09:01:50.859Z,100.00
2023-01-08T09:04:17.496Z,100.00
2023-01-08T09:06:43.890Z,100.00
2023-01-08T09:09:10.385Z,100.00
2023-01-08T09:11:36.985Z,100.00
2023-01-08T09:14:03.443Z,100.00
2023-01-08T09:16:29.941Z,100.00
2023-01-08T09:18:56.533Z,100.00
2023-01-08T09:21:22.998Z,100.00
2023-01-08T09:23:49.810Z,100.00
2023-01-08T09:26:16.273Z,100.00
2023-01-08T09:28:42.754Z,100.00
2023-01-08T09:31:09.211Z,100.00
2023-01-08T09:33:35.799Z,100.00
2023-01-08T09:36:02.263Z,100.00
2023-01-08T09:38:30.016Z,100.00
2023-01-08T09:41:09.438Z,100.00
2023-01-08T09:43:39.069Z,100.00
2023-01-08T09:46:07.676Z,100.00
2023-01-08T09:48:39.902Z,100.00
2023-01-08T09:51:13.415Z,100.00
2023-01-08T09:53:40.341Z,100.00
2023-01-08T09:56:15.765Z,100.00
2023-01-08T09:58:50.988Z,100.00
2023-01-08T10:01:27.363Z,100.00
2023-01-08T10:04:00.349Z,100.00
2023-01-08T10:06:26.770Z,100.00
2023-01-08T10:08:53.337Z,100.00
2023-01-08T10:11:20.747Z,100.00
2023-01-08T10:13:54.379Z,100.00
2023-01-08T10:16:30.926Z,100.00
2023-01-08T10:18:59.715Z,100.00
2023-01-08T10:21:32.979Z,100.00
2023-01-08T10:23:59.449Z,100.00
2023-01-08T10:26:36.458Z,100.00
2023-01-08T10:29:20.885Z,100.00
2023-01-08T10:31:53.607Z,100.00
2023-01-08T10:34:42.668Z,100.00
2023-01-08T10:37:23.677Z,100.00
2023-01-08T10:39:51.689Z,99.58
2023-01-08T10:42:20.769Z,99.75
2023-01-08T10:45:00.787Z,100.00
2023-01-08T10:47:30.744Z,99.02
2023-01-08T10:49:58.787Z,99.81
2023-01-08T10:52:34.346Z,100.00
2023-01-08T10:55:32.984Z,99.85
2023-01-08T10:58:02.629Z,99.34
2023-01-08T11:00:34.363Z,99.94
2023-01-08T11:03:02.037Z,99.24
2023-01-08T11:05:43.045Z,98.82
2023-01-08T11:08:17.800Z,99.18
2023-01-08T11:10:54.178Z,98.85
2023-01-08T11:13:20.709Z,98.46
2023-01-08T11:15:56.874Z,98.15
2023-01-08T11:18:27.019Z,97.82
2023-01-08T11:21:06.040Z,97.05
2023-01-08T11:23:32.612Z,96.76
2023-01-08T11:26:07.619Z,97.03
2023-01-08T11:29:15.020Z,96.67
2023-01-08T11:32:18.980Z,95.80
2023-01-08T11:35:00.867Z,95.94
2023-01-08T11:37:27.254Z,95.07
2023-01-08T11:39:55.621Z,95.28
2023-01-08T11:42:56.054Z,94.61
2023-01-08T11:45:36.696Z,94.26
2023-01-08T11:48:38.745Z,94.16
2023-01-08T11:51:05.112Z,94.23
2023-01-08T11:53:41.271Z,93.52
2023-01-08T11:56:10.448Z,93.50
2023-01-08T11:59:14.239Z,93.32
2023-01-08T12:01:55.996Z,93.43
2023-01-08T12:04:42.415Z,93.36
2023-01-08T12:07:19.036Z,91.83
2023-01-08T12:10:05.103Z,91.94
2023-01-08T12:12:50.859Z,91.22
2023-01-08T12:15:26.458Z,91.54
2023-01-08T12:18:14.430Z,91.50
2023-01-08T12:20:50.577Z,91.66
2023-01-08T12:23:56.111Z,92.12
2023-01-08T12:26:41.429Z,90.98
2023-01-08T12:29:42.320Z,91.94
2023-01-08T12:32:29.231Z,91.88
2023-01-08T12:35:10.928Z,91.79
2023-01-08T12:37:55.209Z,92.77
2023-01-08T12:40:32.997Z,93.08
2023-01-08T12:43:05.082Z,92.76
2023-01-08T12:45:43.224Z,92.90
2023-01-08T12:48:19.508Z,92.72
2023-01-08T12:51:30.363Z,92.47
2023-01-08T12:54:23.324Z,92.54
2023-01-08T12:57:01.931Z,92.88
2023-01-08T12:59:53.050Z,91.60
2023-01-08T13:02:47.563Z,90.85
2023-01-08T13:05:31.096Z,90.38
2023-01-08T13:08:00.222Z,90.77
2023-01-08T13:10:39.103Z,89.44
2023-01-08T13:13:08.253Z,89.77
2023-01-08T13:15:36.091Z,89.43
2023-01-08T13:18:18.910Z,88.76
2023-01-08T13:20:59.619Z,88.41
2023-01-08T13:23:28.983Z,88.40
2023-01-08T13:25:57.975Z,88.80
2023-01-08T13:28:34.884Z,88.76
2023-01-08T13:31:19.691Z,88.84
2023-01-08T13:33:47.793Z,88.39
2023-01-08T13:36:26.113Z,88.33
2023-01-08T13:39:11.704Z,88.63
2023-01-08T13:41:42.689Z,89.52
2023-01-08T13:44:29.060Z,88.93
2023-01-08T13:46:58.553Z,90.38
2023-01-08T13:49:40.991Z,90.31
2023-01-08T13:52:29.066Z,90.61
2023-01-08T13:54:56.058Z,90.24
2023-01-08T13:57:23.587Z,91.14
2023-01-08T13:59:55.144Z,91.42
2023-01-08T14:02:24.834Z,91.38
2023-01-08T14:04:51.923Z,91.40
2023-01-08T14:07:18.885Z,90.19
2023-01-08T14:09:45.343Z,90.33
2023-01-08T14:12:20.248Z,89.09
2023-01-08T14:14:50.598Z,88.91
2023-01-08T14:17:18.931Z,88.95
2023-01-08T14:19:46.113Z,89.43
2023-01-08T14:22:19.163Z,89.27
2023-01-08T14:24:49.648Z,88.80
2023-01-08T14:27:28.473Z,89.78
2023-01-08T14:29:55.772Z,89.63
2023-01-08T14:32:25.959Z,89.89
2023-01-08T14:34:54.503Z,88.49
2023-01-08T14:37:21.052Z,88.85
2023-01-08T14:39:55.137Z,88.90
2023-01-08T14:42:42.632Z,88.60
2023-01-08T14:45:20.750Z,89.38
2023-01-08T14:47:53.096Z,88.80
2023-01-08T14:50:26.570Z,89.29
2023-01-08T14:52:57.448Z,89.10
2023-01-08T14:55:25.197Z,89.54
2023-01-08T14:57:54.551Z,89.82
2023-01-08T15:00:27.871Z,90.01
2023-01-08T15:02:54.536Z,90.19
2023-01-08T15:05:27.892Z,90.24
2023-01-08T15:08:22.902Z,91.21
2023-01-08T15:11:08.908Z,91.65
2023-01-08T15:13:38.143Z,91.55
2023-01-08T15:16:28.178Z,92.02
2023-01-08T15:19:05.329Z,92.42
2023-01-08T15:21:32.616Z,92.59
2023-01-08T15:23:59.976Z,93.13
2023-01-08T15:26:27.081Z,94.04
2023-01-08T15:29:00.873Z,94.17
2023-01-08T15:31:33.402Z,94.22
2023-01-08T15:34:00.812Z,94.38
2023-01-08T15:36:27.488Z,95.12
2023-01-08T15:38:54.076Z,94.63
2023-01-08T15:41:41.082Z,95.02
2023-01-08T15:44:09.579Z,95.05
2023-01-08T15:46:36.095Z,95.26
2023-01-08T15:49:02.586Z,95.47
2023-01-08T15:51:33.249Z,95.74
2023-01-08T15:54:00.476Z,96.23
2023-01-08T15:56:27.287Z,96.41
2023-01-08T15:58:53.736Z,96.10
2023-01-08T16:01:20.514Z,96.79
2023-01-08T16:03:48.342Z,96.66
2023-01-08T16:06:14.826Z,97.56
2023-01-08T16:08:45.795Z,96.99
2023-01-08T16:11:17.651Z,96.44
2023-01-08T16:13:44.294Z,97.32
2023-01-08T16:16:12.712Z,97.37
2023-01-08T16:18:39.368Z,97.11
2023-01-08T16:21:07.324Z,96.75
2023-01-08T16:23:35.626Z,97.42
2023-01-08T16:26:11.780Z,97.15
2023-01-08T16:28:38.392Z,96.30
2023-01-08T16:31:05.563Z,96.94
2023-01-08T16:33:32.055Z,97.86
2023-01-08T16:36:00.412Z,96.46
2023-01-08T16:38:27.162Z,98.41
2023-01-08T16:40:54.421Z,99.72
2023-01-08T16:43:20.861Z,99.52
2023-01-08T16:45:48.240Z,99.45
2023-01-08T16:48:15.289Z,99.28
2023-01-08T16:50:43.211Z,99.12
2023-01-08T16:53:10.167Z,100.00
2023-01-08T16:55:37.869Z,99.36
2023-01-08T16:58:05.103Z,99.60
2023-01-08T17:00:31.975Z,98.94
2023-01-08T17:02:58.608Z,99.94
2023-01-08T17:05:25.218Z,100.00
2023-01-08T17:07:53.119Z,100.00
2023-01-08T17:10:21.641Z,100.00
2023-01-08T17:12:48.215Z,100.00
2023-01-08T17:15:15.090Z,100.00
2023-01-08T17:17:41.860Z,100.00
2023-01-08T17:20:09.369Z,100.00
2023-01-08T17:22:35.762Z,100.00
2023-01-08T17:25:02.254Z,100.00
2023-01-08T17:27:28.803Z,100.00
2023-01-08T17:29:55.315Z,100.00
2023-01-08T17:32:22.074Z,100.00
2023-01-08T17:34:48.477Z,100.00
2023-01-08T17:37:15.427Z,100.00
2023-01-08T17:39:43.625Z,100.00
2023-01-08T17:42:25.531Z,100.00
2023-01-08T17:44:51.948Z,100.00
2023-01-08T17:47:19.776Z,100.00
2023-01-08T17:49:54.305Z,99.89
2023-01-08T17:52:22.964Z,99.22
2023-01-08T17:54:52.745Z,98.39
2023-01-08T17:57:21.047Z,98.08
2023-01-08T17:59:48.496Z,97.54
2023-01-08T18:02:16.520Z,97.33
2023-01-08T18:04:45.352Z,96.30
2023-01-08T18:07:11.856Z,96.63
2023-01-08T18:09:38.579Z,96.64
2023-01-08T18:12:05.221Z,96.39
2023-01-08T18:14:31.693Z,95.89
2023-01-08T18:16:58.093Z,96.00
2023-01-08T18:19:26.129Z,96.80
2023-01-08T18:21:52.611Z,96.82
2023-01-08T18:24:19.150Z,96.42
2023-01-08T18:26:46.523Z,97.19
2023-01-08T18:29:13.258Z,96.82
2023-01-08T18:31:40.222Z,96.53
2023-01-08T18:34:08.813Z,96.79
2023-01-08T18:36:36.613Z,96.82
2023-01-08T18:39:03.565Z,97.06
2023-01-08T18:41:48.412Z,97.00
2023-01-08T18:44:14.925Z,97.61
2023-01-08T18:46:41.456Z,97.97
2023-01-08T18:49:08.017Z,97.87
2023-01-08T18:51:34.499Z,98.06
2023-01-08T18:54:00.949Z,100.00
2023-01-08T18:56:31.147Z,99.60
2023-01-08T18:58:58.128Z,99.84
2023-01-08T19:01:24.989Z,100.00
2023-01-08T19:03:51.851Z,100.00
2023-01-08T19:06:18.492Z,100.00
2023-01-08T19:08:45.234Z,100.00
2023-01-08T19:11:12.258Z,100.00
2023-01-08T19:13:39.093Z,100.00
2023-01-08T19:16:07.398Z,100.00
2023-01-08T19:18:34.522Z,100.00
2023-01-08T19:21:01.229Z,100.00
2023-01-08T19:23:28.286Z,100.00
2023-01-08T19:25:55.108Z,100.00
2023-01-08T19:28:21.557Z,100.00
2023-01-08T19:30:58.517Z,100.00
2023-01-08T19:33:25.370Z,99.78
2023-01-08T19:35:52.144Z,99.29
2023-01-08T19:38:19.262Z,99.24
2023-01-08T19:40:45.746Z,98.35
2023-01-08T19:43:31.613Z,96.43
2023-01-08T19:46:05.463Z,97.32
2023-01-08T19:48:32.470Z,97.49
2023-01-08T19:50:59.564Z,97.50
2023-01-08T19:53:26.025Z,97.64
2023-01-08T19:55:52.481Z,97.18
2023-01-08T19:58:20.372Z,98.69
2023-01-08T20:00:46.905Z,98.56
2023-01-08T20:03:13.674Z,98.71
2023-01-08T20:05:41.495Z,99.39
2023-01-08T20:08:07.975Z,99.33
2023-01-08T20:10:34.431Z,100.00
2023-01-08T20:13:00.971Z,100.00
2023-01-08T20:15:28.900Z,100.00
2023-01-08T20:17:55.626Z,100.00
2023-01-08T20:20:22.062Z,100.00
2023-01-08T20:22:48.586Z,100.00
2023-01-08T20:25:15.190Z,100.00
2023-01-08T20:27:41.651Z,100.00
2023-01-08T20:30:10.276Z,100.00
2023-01-08T20:32:37.077Z,100.00
2023-01-08T20:35:04.744Z,100.00
2023-01-08T20:37:31.463Z,100.00
2023-01-08T20:39:57.864Z,100.00
2023-01-08T20:42:33.482Z,100.00
2023-01-08T20:45:00.697Z,100.00
2023-01-08T20:47:27.294Z,100.00
2023-01-08T20:49:53.773Z,100.00
2023-01-08T20:52:20.266Z,100.00
2023-01-08T20:54:46.763Z,100.00
2023-01-08T20:57:13.377Z,100.00
2023-01-08T20:59:40.134Z,100.00
2023-01-08T21:02:07.048Z,100.00
2023-01-08T21:04:33.601Z,100.00
2023-01-08T21:07:00.232Z,100.00
2023-01-08T21:09:26.771Z,100.00
2023-01-08T21:11:53.332Z,100.00
2023-01-08T21:14:19.836Z,100.00
2023-01-08T21:16:46.405Z,100.00
2023-01-08T21:19:14.772Z,100.00
2023-01-08T21:21:41.818Z,100.00
2023-01-08T21:24:11.399Z,100.00
2023-01-08T21:26:38.934Z,100.00
2023-01-08T21:29:06.844Z,100.00
2023-01-08T21:31:35.001Z,100.00
2023-01-08T21:34:03.193Z,100.00
2023-01-08T21:36:31.549Z,100.00
2023-01-08T21:39:00.485Z,100.00
2023-01-08T21:41:47.389Z,100.00
2023-01-08T21:44:43.879Z,100.00
2023-01-08T21:47:17.082Z,100.00
2023-01-08T21:49:44.902Z,100.00
2023-01-08T21:52:29.959Z,100.00
2023-01-08T21:54:58.150Z,100.00
2023-01-08T21:57:27.582Z,100.00
2023-01-08T21:59:54.475Z,100.00
2023-01-08T22:02:23.133Z,100.00
2023-01-08T22:04:49.970Z,100.00
2023-01-08T22:07:16.610Z,100.00
2023-01-08T22:09:43.077Z,100.00
2023-01-08T22:12:09.615Z,100.00
2023-01-08T22:14:36.305Z,100.00
2023-01-08T22:17:04.060Z,100.00
2023-01-08T22:19:31.075Z,100.00
2023-01-08T22:21:57.584Z,100.00
2023-01-08T22:24:23.971Z,100.00
2023-01-08T22:26:50.450Z,100.00
2023-01-08T22:29:17.161Z,100.00
2023-01-08T22:31:44.771Z,100.00
2023-01-08T22:34:16.819Z,100.00
2023-01-08T22:36:44.130Z,100.00
2023-01-08T22:39:10.987Z,100.00
2023-01-08T22:41:37.762Z,100.00
2023-01-08T22:44:04.338Z,100.00
2023-01-08T22:46:31.673Z,100.00
2023-01-08T22:48:58.259Z,100.00
2023-01-08T22:51:27.791Z,100.00
2023-01-08T22:53:58.906Z,100.00
2023-01-08T22:56:26.317Z,100.00
2023-01-08T22:58:53.354Z,100.00
2023-01-08T23:01:25.170Z,100.00
2023-01-08T23:03:53.636Z,100.00
2023-01-08T23:06:21.969Z,100.00
2023-01-08T23:08:49.070Z,100.00
2023-01-08T23:11:17.835Z,100.00
2023-01-08T23:13:44.909Z,100.00
2023-01-08T23:16:14.431Z,100.00
2023-01-08T23:18:41.324Z,100.00
2023-01-08T23:21:14.611Z,100.00
2023-01-08T23:23:41.244Z,100.00
2023-01-08T23:26:18.498Z,100.00
2023-01-08T23:28:45.952Z,100.00
2023-01-08T23:31:16.330Z,100.00
2023-01-08T23:33:42.900Z,100.00
2023-01-08T23:36:10.278Z,100.00
2023-01-08T23:38:36.695Z,100.00
2023-01-08T23:41:06.521Z,100.00
2023-01-08T23:43:33.113Z,100.00
2023-01-08T23:46:06.376Z,100.00
2023-01-08T23:48:33.681Z,100.00
2023-01-08T23:51:00.209Z,100.00
2023-01-08T23:53:27.377Z,100.00
2023-01-08T23:55:53.957Z,100.00
2023-01-08T23:58:20.719Z,100.00
